createdAt,value
2022-09-09T00:04:33.168Z,1.80
2022-09-09T00:09:43.151Z,2.30
2022-09-09T00:15:28.129Z,1.88
2022-09-09T00:20:27.198Z,1.60
2022-09-09T00:25:34.028Z,1.70
2022-09-09T00:30:35.807Z,2.05
2022-09-09T00:35:41.918Z,1.50
2022-09-09T00:41:03.059Z,1.80
2022-09-09T00:46:23.999Z,1.55
2022-09-09T00:51:38.785Z,1.17
2022-09-09T00:56:51.902Z,1.67
2022-09-09T01:01:53.493Z,1.98
2022-09-09T01:06:56.303Z,1.80
2022-09-09T01:12:18.053Z,1.87
2022-09-09T01:17:26.846Z,1.67
2022-09-09T01:22:44.418Z,1.70
2022-09-09T01:27:44.076Z,1.98
2022-09-09T01:32:47.316Z,1.60
2022-09-09T01:37:52.328Z,1.67
2022-09-09T01:42:51.455Z,1.73
2022-09-09T01:47:53.444Z,1.90
2022-09-09T01:53:00.787Z,1.90
2022-09-09T01:58:23.845Z,1.97
2022-09-09T02:03:35.049Z,2.07
2022-09-09T02:08:49.432Z,1.73
2022-09-09T02:13:55.203Z,1.42
2022-09-09T02:19:05.795Z,1.60
2022-09-09T02:24:17.485Z,1.90
2022-09-09T02:29:29.365Z,1.67
2022-09-09T02:34:31.687Z,1.67
2022-09-09T02:39:32.290Z,2.10
2022-09-09T02:44:31.865Z,1.73
2022-09-09T02:50:15.426Z,1.63
2022-09-09T02:55:29.010Z,2.00
2022-09-09T03:00:32.222Z,1.70
2022-09-09T03:05:34.160Z,1.90
2022-09-09T03:10:34.668Z,3.08
2022-09-09T03:15:33.979Z,1.77
2022-09-09T03:20:33.232Z,1.70
2022-09-09T03:25:34.969Z,1.80
2022-09-09T03:30:35.774Z,3.80
2022-09-09T03:35:38.067Z,2.58
2022-09-09T03:40:37.114Z,2.80
2022-09-09T03:45:41.654Z,2.13
2022-09-09T03:50:43.239Z,2.25
2022-09-09T03:55:44.488Z,2.00
2022-09-09T04:00:43.869Z,2.45
2022-09-09T04:05:45.984Z,2.13
2022-09-09T04:10:49.910Z,2.35
2022-09-09T04:15:54.058Z,1.95
2022-09-09T04:21:01.274Z,2.38
2022-09-09T04:26:03.193Z,2.28
2022-09-09T04:31:34.228Z,2.15
2022-09-09T04:36:37.403Z,2.40
2022-09-09T04:41:38.872Z,2.80
2022-09-09T04:46:38.040Z,2.72
2022-09-09T04:51:37.324Z,2.80
2022-09-09T04:56:44.437Z,2.53
2022-09-09T05:01:43.730Z,2.53
2022-09-09T05:06:44.241Z,2.00
2022-09-09T05:11:45.031Z,2.20
2022-09-09T05:16:54.368Z,2.63
2022-09-09T05:21:57.234Z,2.67
2022-09-09T05:27:03.664Z,2.70
2022-09-09T05:32:02.215Z,4.70
2022-09-09T05:37:03.697Z,5.00
2022-09-09T05:42:05.610Z,1.80
2022-09-09T05:47:05.347Z,2.47
2022-09-09T05:52:06.268Z,2.17
2022-09-09T05:57:09.238Z,1.80
2022-09-09T06:02:10.044Z,1.75
2022-09-09T06:07:12.482Z,2.20
2022-09-09T06:12:15.443Z,2.28
2022-09-09T06:17:16.303Z,2.53
2022-09-09T06:22:14.227Z,1.90
2022-09-09T06:27:16.673Z,1.90
2022-09-09T06:32:17.321Z,2.28
2022-09-09T06:37:20.344Z,2.15
2022-09-09T06:42:21.553Z,2.20
2022-09-09T06:47:48.522Z,2.20
2022-09-09T06:52:48.897Z,2.20
2022-09-09T06:57:46.709Z,2.63
2022-09-09T07:02:49.239Z,2.40
2022-09-09T07:07:49.316Z,2.72
2022-09-09T07:12:54.230Z,3.28
2022-09-09T07:17:55.074Z,2.25
2022-09-09T07:22:56.523Z,2.38
2022-09-09T07:27:58.500Z,2.30
2022-09-09T07:33:01.166Z,3.10
2022-09-09T07:38:07.753Z,2.60
2022-09-09T07:43:06.356Z,2.17
2022-09-09T07:48:06.367Z,2.38
2022-09-09T07:53:07.613Z,2.60
2022-09-09T07:58:06.210Z,2.40
2022-09-09T08:03:05.081Z,2.53
2022-09-09T08:08:04.844Z,2.28
2022-09-09T08:13:19.086Z,2.00
2022-09-09T08:18:19.863Z,2.28
2022-09-09T08:23:18.782Z,3.05
2022-09-09T08:28:19.248Z,3.03
2022-09-09T08:33:20.393Z,2.80
2022-09-09T08:38:25.504Z,2.30
2022-09-09T08:43:24.103Z,2.22
2022-09-09T08:48:53.524Z,2.97
2022-09-09T08:53:57.741Z,2.60
2022-09-09T08:59:03.935Z,3.03
2022-09-09T09:04:33.981Z,2.30
2022-09-09T09:10:00.541Z,2.80
2022-09-09T09:15:02.562Z,2.20
2022-09-09T09:20:06.252Z,2.70
2022-09-09T09:25:07.795Z,2.53
2022-09-09T09:30:29.868Z,2.78
2022-09-09T09:35:41.588Z,2.30
2022-09-09T09:40:56.399Z,3.13
2022-09-09T09:46:14.370Z,2.85
2022-09-09T09:51:21.645Z,2.70
2022-09-09T09:56:46.138Z,2.60
2022-09-09T10:01:45.674Z,3.00
2022-09-09T10:06:46.223Z,3.47
2022-09-09T10:12:06.955Z,2.90
2022-09-09T10:17:37.274Z,2.95
2022-09-09T10:22:39.922Z,2.78
2022-09-09T10:28:03.929Z,2.63
2022-09-09T10:33:40.703Z,2.83
2022-09-09T10:38:47.020Z,2.88
2022-09-09T10:44:06.207Z,2.88
2022-09-09T10:49:39.522Z,2.97
2022-09-09T10:55:17.675Z,2.72
2022-09-09T11:00:43.691Z,2.60
2022-09-09T11:05:49.573Z,2.47
2022-09-09T11:11:20.125Z,3.10
2022-09-09T11:17:02.740Z,2.30
2022-09-09T11:22:09.888Z,2.42
2022-09-09T11:27:22.021Z,2.55
2022-09-09T11:32:42.147Z,2.75
2022-09-09T11:38:40.042Z,3.15
2022-09-09T11:43:46.409Z,2.70
2022-09-09T11:48:59.911Z,3.15
2022-09-09T11:54:03.786Z,2.53
2022-09-09T11:59:23.275Z,3.30
2022-09-09T12:04:28.699Z,2.83
2022-09-09T12:09:47.635Z,3.05
2022-09-09T12:15:06.338Z,3.35
2022-09-09T12:20:17.228Z,2.85
2022-09-09T12:25:42.242Z,2.63
2022-09-09T12:31:14.720Z,2.83
2022-09-09T12:36:34.542Z,3.00
2022-09-09T12:41:36.021Z,3.65
2022-09-09T12:46:45.824Z,3.00
2022-09-09T12:51:47.122Z,3.00
2022-09-09T12:56:48.007Z,3.00
2022-09-09T13:01:58.114Z,2.92
2022-09-09T13:07:08.162Z,2.90
2022-09-09T13:12:08.396Z,3.25
2022-09-09T13:17:19.629Z,3.25
2022-09-09T13:22:25.817Z,2.75
2022-09-09T13:27:37.396Z,2.80
2022-09-09T13:32:35.463Z,3.20
2022-09-09T13:37:44.742Z,3.90
2022-09-09T13:42:43.815Z,2.95
2022-09-09T13:47:46.553Z,3.15
2022-09-09T13:52:52.943Z,4.07
2022-09-09T13:57:58.130Z,3.22
2022-09-09T14:02:59.016Z,3.33
2022-09-09T14:07:57.719Z,3.17
2022-09-09T14:12:57.215Z,3.42
2022-09-09T14:17:55.692Z,3.60
2022-09-09T14:23:03.343Z,3.28
2022-09-09T14:28:10.247Z,3.72
2022-09-09T14:33:12.886Z,3.60
2022-09-09T14:38:18.966Z,3.80
2022-09-09T14:43:23.812Z,4.30
2022-09-09T14:48:24.073Z,4.00
2022-09-09T14:53:24.249Z,3.90
2022-09-09T14:58:22.806Z,5.75
2022-09-09T15:03:23.207Z,6.05
2022-09-09T15:08:24.801Z,6.25
2022-09-09T15:13:35.700Z,5.68
2022-09-09T15:18:37.708Z,5.88
2022-09-09T15:23:39.205Z,4.90
2022-09-09T15:28:42.346Z,5.30
2022-09-09T15:33:43.484Z,5.10
2022-09-09T15:38:43.947Z,5.38
2022-09-09T15:43:53.004Z,5.07
2022-09-09T15:48:54.303Z,6.20
2022-09-09T15:53:59.499Z,5.85
2022-09-09T15:58:58.737Z,6.78
2022-09-09T16:03:57.715Z,6.13
2022-09-09T16:09:02.702Z,6.60
2022-09-09T16:14:05.203Z,6.50
2022-09-09T16:19:15.943Z,6.68
2022-09-09T16:24:19.995Z,4.85
2022-09-09T16:29:25.239Z,5.20
2022-09-09T16:34:26.989Z,5.93
2022-09-09T16:39:26.721Z,5.13
2022-09-09T16:44:32.273Z,4.93
2022-09-09T16:49:35.681Z,4.18
2022-09-09T16:54:38.446Z,4.55
2022-09-09T16:59:39.061Z,6.07
2022-09-09T17:04:38.439Z,6.97
2022-09-09T17:09:37.610Z,6.10
2022-09-09T17:14:35.962Z,5.70
2022-09-09T17:19:37.899Z,5.00
2022-09-09T17:24:39.724Z,5.05
2022-09-09T17:29:38.739Z,5.32
2022-09-09T17:34:40.384Z,4.50
2022-09-09T17:39:39.408Z,5.53
2022-09-09T17:44:41.229Z,4.90
2022-09-09T17:49:40.693Z,5.55
2022-09-09T17:54:42.661Z,5.82
2022-09-09T17:59:45.569Z,6.47
2022-09-09T18:04:47.521Z,5.47
2022-09-09T18:09:47.026Z,4.85
2022-09-09T18:14:47.278Z,5.00
2022-09-09T18:19:47.129Z,4.45
2022-09-09T18:24:48.682Z,4.88
2022-09-09T18:29:48.748Z,5.20
2022-09-09T18:34:47.123Z,4.75
2022-09-09T18:39:46.020Z,5.45
2022-09-09T18:44:44.648Z,5.43
2022-09-09T18:49:43.538Z,6.10
2022-09-09T18:54:46.082Z,7.07
2022-09-09T18:59:44.465Z,9.10
2022-09-09T19:04:42.966Z,8.38
2022-09-09T19:09:44.428Z,7.65
2022-09-09T19:14:45.582Z,6.80
2022-09-09T19:19:44.586Z,6.20
2022-09-09T19:24:46.077Z,6.03
2022-09-09T19:29:45.022Z,5.65
2022-09-09T19:34:44.248Z,6.03
2022-09-09T19:39:43.022Z,5.30
2022-09-09T19:44:44.247Z,5.50
2022-09-09T19:49:46.912Z,5.93
2022-09-09T19:59:46.149Z,5.28
2022-09-09T20:04:44.953Z,5.07
2022-09-09T20:09:43.853Z,5.68
2022-09-09T20:14:42.573Z,4.95
2022-09-09T20:19:40.846Z,4.50
2022-09-09T20:24:39.033Z,4.47
2022-09-09T20:29:37.430Z,4.13
2022-09-09T20:34:38.372Z,4.22
2022-09-09T20:39:37.553Z,3.90
2022-09-09T20:44:35.879Z,3.95
2022-09-09T20:49:35.507Z,3.67
2022-09-09T20:54:37.934Z,4.43
2022-09-09T20:59:38.869Z,4.25
2022-09-09T21:04:38.911Z,5.85
2022-09-09T21:09:37.661Z,5.53
2022-09-09T21:14:36.367Z,6.03
2022-09-09T21:19:36.052Z,6.30
2022-09-09T21:24:36.582Z,5.53
2022-09-09T21:29:34.461Z,5.72
2022-09-09T21:34:35.108Z,5.30
2022-09-09T21:39:35.217Z,5.07
2022-09-09T21:44:34.238Z,4.45
2022-09-09T21:49:33.056Z,4.60
2022-09-09T21:54:31.861Z,5.65
2022-09-09T21:59:32.652Z,4.82
2022-09-09T22:04:31.597Z,5.38
2022-09-09T22:09:29.344Z,4.90
2022-09-09T22:14:28.170Z,5.40
2022-09-09T22:19:27.326Z,5.45
2022-09-09T22:24:29.014Z,5.80
2022-09-09T22:29:31.819Z,5.53
2022-09-09T22:34:32.503Z,4.90
2022-09-09T22:39:30.950Z,4.95
2022-09-09T22:44:29.990Z,4.05
2022-09-09T22:49:31.517Z,4.65
2022-09-09T22:54:32.629Z,3.58
2022-09-09T22:59:31.729Z,3.70
2022-09-09T23:04:30.721Z,3.00
2022-09-09T23:09:30.163Z,2.65
2022-09-09T23:14:29.410Z,2.17
2022-09-09T23:19:28.972Z,2.40
2022-09-09T23:24:26.760Z,1.95
2022-09-09T23:29:26.150Z,2.38
2022-09-09T23:34:25.585Z,2.40
2022-09-09T23:39:24.485Z,2.20
2022-09-09T23:44:23.904Z,2.05
2022-09-09T23:49:34.457Z,2.22
2022-09-09T23:54:34.523Z,1.90
2022-09-09T23:59:35.220Z,1.60
